Main page
METAR-TAF:

METAR-TAF

Airports :

RAF Leeming

Leeming, England

latitude: 54-18N, longitude: 001-32W, elevation: 40 m

Current weather observation

The report was made 1 hour and 8 minutes ago, at 21:50 UTC
Wind 5 kt from the East/Northeast
Temperature 5°C
Humidity 81%
Pressure 1002 hPa
Visibility 10 km or more
Few clouds at a height of 2200 ft
Overcast at a height of 3100 ft

METAR: EGXE 212150Z 06005KT 9999 FEW022 OVC031 05/02 Q1002 BECMG SCT022 RMK BLU BECMG WHT

Time: 22:58 (22:58 UTC)

Forecast

The report was made 5 hours and 47 minutes ago, at 17:11 UTC
Forecast valid from 21 at 18 UTC to 21 at 23 UTC
Wind 6 kt from the East/Northeast
Visibility 10 km or more
Broken clouds at a height of 2600 ft
Temporary
from 21 at 18 UTC to 21 at 20 UTC
Broken clouds at a height of 2000 ft
Becoming
from 21 at 20 UTC to 21 at 23 UTC
Broken clouds at a height of 2000 ft

TAF: EGXE 211711Z 2118/2123 06006KT 9999 BKN026 TEMPO 2118/2120 BKN020 BECMG 2120/2123 BKN020

Weather observations and forecasts of more than 4000 airports (METAR and TAF reports).

The available stations are represented by yellow and red dots on the map.

Hover mouse over dot to see the name of the station.

Then click to see weather observations and forecasts.

To change the map : click on the green buttons with a black cross to zoom in, on the green button with a dash to zoom out, or on the green arrows for adjacent maps.


METAR-TAF: